createdAt,value
2022-10-19T00:00:45.450Z,78.82
2022-10-19T00:11:41.064Z,70.60
2022-10-19T00:19:09.168Z,64.78
2022-10-19T00:24:39.713Z,83.68
2022-10-19T00:27:41.742Z,104.72
2022-10-19T00:30:36.241Z,98.40
2022-10-19T00:33:37.580Z,92.45
2022-10-19T00:40:54.037Z,90.15
2022-10-19T00:59:50.080Z,103.43
2022-10-19T01:15:03.322Z,95.05
2022-10-19T01:22:54.824Z,103.28
2022-10-19T01:31:19.612Z,206.52
2022-10-19T01:38:17.115Z,257.70
2022-10-19T01:57:34.048Z,216.45
2022-10-19T02:09:35.012Z,290.38
2022-10-19T02:29:56.259Z,193.25
2022-10-19T02:40:17.895Z,516.28
2022-10-19T02:51:42.122Z,221.00
2022-10-19T02:58:15.170Z,252.05
2022-10-19T03:01:52.379Z,294.40
2022-10-19T03:27:13.675Z,273.98
2022-10-19T03:29:34.809Z,432.30
2022-10-19T03:32:35.610Z,330.35
2022-10-19T03:37:31.663Z,416.88
2022-10-19T03:39:19.155Z,399.10
2022-10-19T03:46:30.548Z,333.02
2022-10-19T03:49:56.473Z,314.88
2022-10-19T03:53:32.568Z,386.17
2022-10-19T03:56:37.518Z,325.90
2022-10-19T03:59:56.347Z,417.73
2022-10-19T04:03:20.023Z,252.25
2022-10-19T04:10:02.648Z,265.00
2022-10-19T04:20:52.160Z,231.57
2022-10-19T04:24:13.542Z,370.08
2022-10-19T04:27:00.819Z,321.20
2022-10-19T04:29:50.047Z,241.57
2022-10-19T04:32:39.830Z,380.08
2022-10-19T04:35:27.274Z,381.77
2022-10-19T04:38:14.488Z,462.08
2022-10-19T04:41:07.861Z,512.85
2022-10-19T04:43:57.693Z,411.00
2022-10-19T04:46:44.989Z,291.38
2022-10-19T04:49:32.113Z,288.27
2022-10-19T04:52:21.662Z,282.83
2022-10-19T04:55:09.038Z,251.20
2022-10-19T04:57:56.190Z,256.45
2022-10-19T05:00:43.772Z,217.05
2022-10-19T05:03:30.909Z,207.23
2022-10-19T05:06:19.711Z,184.45
2022-10-19T05:09:10.016Z,242.90
2022-10-19T05:11:59.362Z,262.92
2022-10-19T05:14:46.816Z,231.75
2022-10-19T05:17:37.284Z,251.20
2022-10-19T05:20:31.585Z,230.40
2022-10-19T05:23:19.482Z,341.98
2022-10-19T05:26:17.573Z,296.08
2022-10-19T05:29:05.220Z,244.60
2022-10-19T05:31:52.419Z,226.77
2022-10-19T05:34:42.198Z,242.48
2022-10-19T05:37:29.329Z,298.52
2022-10-19T05:40:18.670Z,186.30
2022-10-19T05:43:08.612Z,231.82
2022-10-19T05:45:56.056Z,243.48
2022-10-19T05:48:43.655Z,223.45
2022-10-19T05:51:30.983Z,219.27
2022-10-19T05:54:18.947Z,187.73
2022-10-19T05:57:06.113Z,210.23
2022-10-19T05:59:56.634Z,277.10
2022-10-19T06:02:44.149Z,201.73
2022-10-19T06:05:32.577Z,216.23
2022-10-19T06:08:21.254Z,210.05
2022-10-19T06:11:18.699Z,228.98
2022-10-19T06:14:14.212Z,264.08
2022-10-19T06:17:01.784Z,302.10
2022-10-19T06:19:48.940Z,278.48
2022-10-19T06:22:38.662Z,320.23
2022-10-19T06:25:32.025Z,466.08
2022-10-19T06:28:24.107Z,276.80
2022-10-19T06:31:24.528Z,388.80
2022-10-19T06:34:22.418Z,262.73
2022-10-19T06:37:13.108Z,349.38
2022-10-19T06:40:03.593Z,367.30
2022-10-19T06:42:56.098Z,369.30
2022-10-19T06:45:43.845Z,487.20
2022-10-19T06:48:31.540Z,243.45
2022-10-19T06:51:19.844Z,440.10
2022-10-19T06:54:12.309Z,458.17
2022-10-19T06:57:11.149Z,576.85
2022-10-19T06:59:59.786Z,363.25
2022-10-19T07:03:22.673Z,514.63
2022-10-19T07:09:38.803Z,305.80
2022-10-19T07:12:45.216Z,272.95
2022-10-19T07:27:59.341Z,221.35
2022-10-19T07:34:55.953Z,357.63
2022-10-19T07:45:20.819Z,331.85
2022-10-19T07:55:19.749Z,199.57
2022-10-19T07:58:37.883Z,206.02
2022-10-19T08:01:57.479Z,207.88
2022-10-19T08:05:35.809Z,175.18
2022-10-19T08:12:27.974Z,155.82
2022-10-19T08:18:33.648Z,130.98
2022-10-19T08:25:37.410Z,118.43
2022-10-19T08:28:31.724Z,109.65
2022-10-19T08:31:25.942Z,106.88
2022-10-19T08:34:39.794Z,116.63
2022-10-19T08:37:44.177Z,101.18
2022-10-19T08:40:32.111Z,103.85
2022-10-19T08:44:20.665Z,97.80
2022-10-19T08:47:43.326Z,91.38
2022-10-19T08:50:43.427Z,69.00
2022-10-19T08:53:40.896Z,64.35
2022-10-19T08:56:51.741Z,58.95
2022-10-19T09:00:16.329Z,54.50
2022-10-19T09:04:31.354Z,57.22
2022-10-19T09:07:55.201Z,55.42
2022-10-19T09:10:41.134Z,48.25
2022-10-19T09:14:18.410Z,36.80
2022-10-19T09:17:47.514Z,34.28
2022-10-19T09:20:39.153Z,33.03
2022-10-19T09:23:47.830Z,34.28
2022-10-19T09:26:57.345Z,31.83
2022-10-19T09:30:05.241Z,33.75
2022-10-19T09:33:18.473Z,34.88
2022-10-19T09:39:00.406Z,36.83
2022-10-19T09:41:51.909Z,27.50
2022-10-19T09:44:54.589Z,27.17
2022-10-19T09:47:45.964Z,34.63
2022-10-19T09:50:33.723Z,27.83
2022-10-19T09:54:00.373Z,37.05
2022-10-19T09:57:21.804Z,31.55
2022-10-19T10:00:19.761Z,33.08
2022-10-19T10:03:10.977Z,29.83
2022-10-19T10:06:07.855Z,25.88
2022-10-19T10:09:00.828Z,23.67
2022-10-19T10:11:51.982Z,24.23
2022-10-19T10:14:44.177Z,24.05
2022-10-19T10:17:31.863Z,23.17
2022-10-19T10:20:30.492Z,24.83
2022-10-19T10:23:25.119Z,19.27
2022-10-19T10:26:19.756Z,23.58
2022-10-19T10:29:17.646Z,25.75
2022-10-19T10:32:22.566Z,20.13
2022-10-19T10:35:33.990Z,20.50
2022-10-19T10:38:26.574Z,19.30
2022-10-19T10:41:23.511Z,18.52
2022-10-19T10:44:26.747Z,17.88
2022-10-19T10:47:21.361Z,12.98
2022-10-19T10:50:23.401Z,12.75
2022-10-19T10:54:11.772Z,10.70
2022-10-19T10:57:16.281Z,13.60
2022-10-19T11:00:21.472Z,10.18
2022-10-19T11:03:19.277Z,6.90
2022-10-19T11:09:34.914Z,8.20
2022-10-19T11:12:35.110Z,8.68
2022-10-19T11:15:33.782Z,5.50
2022-10-19T11:18:39.696Z,9.38
2022-10-19T11:21:34.509Z,6.10
2022-10-19T11:24:46.338Z,7.47
2022-10-19T11:27:57.581Z,7.63
2022-10-19T11:31:22.847Z,7.50
2022-10-19T11:34:38.727Z,7.03
2022-10-19T11:38:17.596Z,5.78
2022-10-19T11:44:19.963Z,5.32
2022-10-19T11:54:49.171Z,3.97
2022-10-19T11:58:11.618Z,4.63
2022-10-19T12:01:18.327Z,3.95
2022-10-19T12:04:32.913Z,5.20
2022-10-19T12:08:17.022Z,5.32
2022-10-19T12:11:30.002Z,5.75
2022-10-19T12:15:13.538Z,4.07
2022-10-19T12:18:38.876Z,8.57
2022-10-19T12:21:38.283Z,5.47
2022-10-19T12:24:30.745Z,6.53
2022-10-19T12:27:36.536Z,6.38
2022-10-19T12:30:25.140Z,4.55
2022-10-19T12:33:33.230Z,6.28
2022-10-19T12:36:41.268Z,7.05
2022-10-19T12:39:38.428Z,5.63
2022-10-19T12:46:24.395Z,9.80
2022-10-19T12:49:33.109Z,8.27
2022-10-19T12:52:46.377Z,8.88
2022-10-19T12:55:36.869Z,13.57
2022-10-19T13:11:18.799Z,7.30
2022-10-19T13:14:20.849Z,10.65
2022-10-19T13:17:17.616Z,7.38
2022-10-19T13:20:14.230Z,7.97
2022-10-19T13:23:06.081Z,9.50
2022-10-19T13:30:17.575Z,7.50
2022-10-19T13:32:55.196Z,10.98
2022-10-19T13:35:42.389Z,8.13
2022-10-19T13:39:06.842Z,8.70
2022-10-19T13:41:57.349Z,7.18
2022-10-19T13:44:47.294Z,8.90
2022-10-19T13:47:44.514Z,6.55
2022-10-19T13:51:18.887Z,7.55
2022-10-19T13:54:16.767Z,7.47
2022-10-19T13:57:42.485Z,7.75
2022-10-19T14:04:16.738Z,10.70
2022-10-19T14:07:30.485Z,8.43
2022-10-19T14:13:41.662Z,10.23
2022-10-19T14:16:30.735Z,8.43
2022-10-19T14:19:42.105Z,9.18
2022-10-19T14:22:55.333Z,8.02
2022-10-19T14:29:40.957Z,6.72
2022-10-19T14:35:38.339Z,9.93
2022-10-19T14:38:25.747Z,6.55
2022-10-19T14:41:39.532Z,14.52
2022-10-19T14:45:09.945Z,7.40
2022-10-19T14:48:23.813Z,7.05
2022-10-19T14:51:32.870Z,7.93
2022-10-19T14:54:46.997Z,9.65
2022-10-19T14:57:37.204Z,8.32
2022-10-19T15:00:45.478Z,9.95
2022-10-19T15:03:34.115Z,8.18
2022-10-19T15:06:36.577Z,10.05
2022-10-19T15:09:37.425Z,7.53
2022-10-19T15:12:37.891Z,10.07
2022-10-19T15:15:30.396Z,7.40
2022-10-19T15:18:48.141Z,8.02
2022-10-19T15:21:35.778Z,10.85
2022-10-19T15:24:30.961Z,10.23
2022-10-19T15:27:22.934Z,9.63
2022-10-19T15:30:26.169Z,8.02
2022-10-19T15:33:17.957Z,10.88
2022-10-19T15:36:17.336Z,8.60
2022-10-19T15:39:39.898Z,10.60
2022-10-19T15:46:20.636Z,9.20
2022-10-19T15:49:36.600Z,10.00
2022-10-19T15:52:35.036Z,10.35
2022-10-19T15:57:11.634Z,12.07
2022-10-19T16:00:29.131Z,10.90
2022-10-19T16:07:43.515Z,10.75
2022-10-19T16:10:53.078Z,11.93
2022-10-19T16:17:50.605Z,11.63
2022-10-19T16:24:32.793Z,12.00
2022-10-19T16:42:11.777Z,14.68
2022-10-19T16:45:21.975Z,13.00
2022-10-19T16:48:45.649Z,14.38
2022-10-19T17:10:50.096Z,16.35
2022-10-19T17:14:48.039Z,17.10
2022-10-19T17:17:36.986Z,14.07
2022-10-19T17:28:29.617Z,20.15
2022-10-19T17:36:11.034Z,13.45
2022-10-19T17:39:32.208Z,16.00
2022-10-19T17:42:25.361Z,13.63
2022-10-19T17:45:36.975Z,14.98
2022-10-19T17:48:25.654Z,13.32
2022-10-19T17:51:23.374Z,12.60
2022-10-19T17:54:54.805Z,10.65
2022-10-19T17:58:13.075Z,13.48
2022-10-19T18:01:03.535Z,11.80
2022-10-19T18:04:13.876Z,33.28
2022-10-19T18:07:06.227Z,36.25
2022-10-19T18:10:03.728Z,16.58
2022-10-19T18:17:04.712Z,14.48
2022-10-19T18:19:53.154Z,16.92
2022-10-19T18:22:44.697Z,20.35
2022-10-19T18:25:52.916Z,16.85
2022-10-19T18:28:42.118Z,16.27
2022-10-19T18:32:03.447Z,20.42
2022-10-19T18:35:06.478Z,17.75
2022-10-19T18:45:11.456Z,37.33
2022-10-19T18:48:08.414Z,29.25
2022-10-19T18:51:07.513Z,19.30
2022-10-19T18:53:56.616Z,16.95
2022-10-19T18:56:47.066Z,14.48
2022-10-19T18:59:41.750Z,14.93
2022-10-19T19:02:42.216Z,18.58
2022-10-19T19:05:33.856Z,22.55
2022-10-19T19:11:24.264Z,15.45
2022-10-19T19:14:15.841Z,17.58
2022-10-19T19:17:03.218Z,18.15
2022-10-19T19:19:56.102Z,19.60
2022-10-19T19:22:49.882Z,19.55
2022-10-19T19:26:25.824Z,18.17
2022-10-19T19:29:16.418Z,27.63
2022-10-19T19:32:08.244Z,24.75
2022-10-19T19:34:55.670Z,20.37
2022-10-19T19:37:42.911Z,17.48
2022-10-19T19:40:30.731Z,21.85
2022-10-19T19:43:24.575Z,18.08
2022-10-19T19:46:17.466Z,19.50
2022-10-19T19:49:07.559Z,22.98
2022-10-19T19:51:55.155Z,28.63
2022-10-19T19:54:42.387Z,21.05
2022-10-19T19:57:30.898Z,24.50
2022-10-19T20:00:18.076Z,25.67
2022-10-19T20:03:06.107Z,25.95
2022-10-19T20:05:55.125Z,32.85
2022-10-19T20:08:45.153Z,31.48
2022-10-19T20:11:38.355Z,48.90
2022-10-19T20:14:28.407Z,40.92
2022-10-19T20:17:15.840Z,34.33
2022-10-19T20:20:04.947Z,30.58
2022-10-19T20:22:52.428Z,30.13
2022-10-19T20:25:40.018Z,34.90
2022-10-19T20:28:33.244Z,32.90
2022-10-19T20:31:23.361Z,31.27
2022-10-19T20:34:14.237Z,28.02
2022-10-19T20:37:02.169Z,29.17
2022-10-19T20:39:50.002Z,29.77
2022-10-19T20:42:37.688Z,26.98
2022-10-19T20:45:27.539Z,25.92
2022-10-19T20:48:18.182Z,26.30
2022-10-19T20:51:20.358Z,26.73
2022-10-19T20:54:12.337Z,29.90
2022-10-19T20:57:00.052Z,28.63
2022-10-19T20:59:48.673Z,29.38
2022-10-19T21:02:38.632Z,31.33
2022-10-19T21:05:29.652Z,31.17
2022-10-19T21:08:28.350Z,35.50
2022-10-19T21:11:26.035Z,37.95
2022-10-19T21:14:29.105Z,34.85
2022-10-19T21:20:32.745Z,40.75
2022-10-19T21:23:28.048Z,41.15
2022-10-19T21:26:19.824Z,48.65
2022-10-19T21:29:22.760Z,43.60
2022-10-19T21:38:41.523Z,51.65
2022-10-19T21:41:32.564Z,59.53
2022-10-19T21:44:24.915Z,63.13
2022-10-19T21:47:15.786Z,53.42
2022-10-19T21:50:08.437Z,48.45
2022-10-19T21:52:58.896Z,52.03
2022-10-19T21:55:53.450Z,50.65
2022-10-19T21:58:48.811Z,52.75
2022-10-19T22:01:41.385Z,50.30
2022-10-19T22:04:42.479Z,48.20
2022-10-19T22:07:32.961Z,57.17
2022-10-19T22:10:23.269Z,69.35
2022-10-19T22:13:11.863Z,67.80
2022-10-19T22:16:05.229Z,66.63
2022-10-19T22:18:53.466Z,54.88
2022-10-19T22:21:41.298Z,63.60
2022-10-19T22:24:29.715Z,74.75
2022-10-19T22:27:27.958Z,66.93
2022-10-19T22:30:23.988Z,68.97
2022-10-19T22:33:16.038Z,69.30
2022-10-19T22:36:11.167Z,70.07
2022-10-19T22:38:58.788Z,67.63
2022-10-19T22:41:47.001Z,68.43
2022-10-19T22:44:34.438Z,76.47
2022-10-19T22:47:21.992Z,68.43
2022-10-19T22:50:11.960Z,69.57
2022-10-19T22:53:03.103Z,75.30
2022-10-19T22:55:51.065Z,69.95
2022-10-19T22:58:38.814Z,86.57
2022-10-19T23:01:26.679Z,82.88
2022-10-19T23:04:14.033Z,93.50
2022-10-19T23:07:01.556Z,90.28
2022-10-19T23:09:48.912Z,86.85
2022-10-19T23:12:36.325Z,92.00
2022-10-19T23:15:28.193Z,94.72
2022-10-19T23:18:16.066Z,64.43
2022-10-19T23:21:06.142Z,93.50
2022-10-19T23:23:54.547Z,91.68
2022-10-19T23:26:42.514Z,83.82
2022-10-19T23:29:29.831Z,75.32
2022-10-19T23:32:17.051Z,68.20
2022-10-19T23:35:05.050Z,66.65
2022-10-19T23:37:52.203Z,57.25
2022-10-19T23:40:39.465Z,70.95
2022-10-19T23:43:26.977Z,71.35
2022-10-19T23:46:15.126Z,90.45
2022-10-19T23:49:26.689Z,72.03
2022-10-19T23:52:13.975Z,94.13
2022-10-19T23:55:01.146Z,96.75
2022-10-19T23:57:48.296Z,91.90
